Flight Track Log - Related Links

Times and Time Zones

All times are in EDT time to prevent confusion due to time zone crossing. See the SWA183 flight status page for this flight to view local times or setup timezone preferences in your user account.

Time Position Orientation Groundspeed Altitude Reporting Facility
EDT Latitude Longitude Course Direction KTS MPH feet Rate Location/Type
Wed 12:29:27 PM 29.9814 -90.3569 262° West 237 273 4,100  Level Houston Center
Wed 12:30:10 PM 29.9450 -90.3436 162° South 239 275 5,300 2,321 Climbing Houston Center
Wed 12:31:13 PM 29.8972 -90.2747 129° Southeast 263 303 8,200 3,216 Climbing Houston Center
Wed 12:32:15 PM 29.8417 -90.2028 132° Southeast 286 329 12,000 3,339 Climbing Houston Center
Wed 12:33:17 PM 29.7686 -90.1075 131° Southeast 309 356 15,100 2,710 Climbing Houston Center
Wed 12:34:19 PM 29.7008 -90.0136 130° Southeast 366 421 17,600 2,274 Climbing Houston Center
Wed 12:35:21 PM 29.6314 -89.9222 131° Southeast 379 436 19,800 2,274 Climbing Houston Center
Wed 12:36:23 PM 29.6017 -89.8042 106° East 392 451 22,300 2,419 Climbing Houston Center
Wed 12:37:25 PM 29.5794 -89.6772 101° East 402 463 24,800 2,640 Climbing Houston Center
Wed 12:38:28 PM 29.5500 -89.5206 102° East 422 486 27,800 2,592 Climbing Houston Center
Wed 12:39:30 PM 29.5258 -89.3914 102° East 417 480 30,200 2,323 Climbing Houston Center
Wed 12:40:32 PM 29.4786 -89.2728 115° Southeast 412 474 32,600 2,274 Climbing Houston Center
Wed 12:41:34 PM 29.4272 -89.1567 117° Southeast 410 472 34,900 1,742 Climbing Houston Center
Wed 12:42:36 PM 29.3792 -89.0461 116° Southeast 393 452 36,200 774 Climbing Houston Center
Wed 12:43:38 PM 29.3250 -88.9258 117° Southeast 422 486 36,500 871 Climbing Houston Center
Wed 12:44:40 PM 29.2578 -88.7719 117° Southeast 448 516 38,000 1,452 Climbing Houston Center
Wed 12:45:42 PM 29.2017 -88.6461 117° Southeast 446 513 39,500 1,258 Climbing Houston Center
Wed 12:46:44 PM 29.1444 -88.5200 117° Southeast 447 514 40,600 726 Climbing Houston Center
Wed 12:47:46 PM 29.0889 -88.3928 117° Southeast 447 514 41,000 194 Climbing Houston Center
Wed 12:48:48 PM 29.0322 -88.2669 117° Southeast 447 514 41,000  Level Houston Center
Wed 12:49:50 PM 28.9769 -88.1414 117° Southeast 445 512 41,000  Level Houston Center
Wed 12:50:52 PM 28.9100 -87.9936 117° Southeast 445 512 41,000  Level Houston Center
Wed 12:51:54 PM 28.8531 -87.8692 118° Southeast 444 511 41,000  Level Houston Center
Wed 12:52:56 PM 28.7964 -87.7439 117° Southeast 444 511 41,000  Level Houston Center
Wed 12:53:58 PM 28.7397 -87.6197 117° Southeast 444 511 41,000  Level Houston Center
Wed 12:55:00 PM 28.6825 -87.4961 118° Southeast 443 510 41,000  Level Houston Center
Wed 12:56:02 PM 28.6128 -87.3450 118° Southeast 448 516 41,000  Level Houston Center
Wed 12:57:04 PM 28.5572 -87.2214 117° Southeast 445 512 41,000  Level Houston Center
Wed 12:58:06 PM 28.4981 -87.0969 118° Southeast 447 514 41,000 -385 Level Houston Center
Wed 12:58:53 PM 28.4536 -87.0006 118° Southeast 448 516 40,300 -953 Descending Jacksonville Center
Wed 12:59:53 PM 28.3969 -86.8778 118° Southeast 448 516 39,300 -950 Descending Jacksonville Center
Wed 01:00:53 PM 28.3364 -86.7481 118° Southeast 448 516 38,400 -950 Descending Jacksonville Center
Wed 01:01:53 PM 28.2942 -86.6239 111° Southeast 439 505 37,400 -950 Descending Jacksonville Center
Wed 01:02:53 PM 28.2522 -86.4833 109° East 444 511 36,500 -950 Descending Jacksonville Center
Wed 01:03:53 PM 28.2119 -86.3500 109° East 444 511 35,500 -800 Descending Jacksonville Center
Wed 01:04:53 PM 28.1736 -86.2194 108° East 449 517 34,900 -250 Descending Jacksonville Center
Wed 01:05:53 PM 28.1333 -86.0861 109° East 446 513 35,000  Climbing Jacksonville Center
Wed 01:06:53 PM 28.0947 -85.9533 108° East 441 507 34,900 -550 Descending Jacksonville Center
Wed 01:07:53 PM 28.0561 -85.8250 109° East 435 501 33,900 -675 Descending Jacksonville Center
Wed 01:09:42 PM 27.9853 -85.5847 108° East 438 504 33,000 -320 Descending Miami Center
Wed 01:10:42 PM 27.9411 -85.4522 111° Southeast 438 504 33,000  Level Miami Center
Wed 01:11:42 PM 27.9050 -85.3231 108° East 438 504 33,000  Level Miami Center
Wed 01:12:42 PM 27.8756 -85.1847 104° East 443 510 33,000  Level Miami Center
Wed 01:13:42 PM 27.8708 -85.0508 92° East 432 497 33,000  Level Miami Center
Wed 01:14:42 PM 27.8669 -84.9003 92° East 437 503 33,000  Level Miami Center
Wed 01:15:42 PM 27.8767 -84.7603 85° East 437 503 33,000  Level Miami Center
Wed 01:16:42 PM 27.8758 -84.6242 90° East 437 503 33,000  Level Miami Center
Wed 01:17:42 PM 27.8789 -84.4883 89° East 437 503 33,000 -1,200 Level Miami Center
Wed 01:18:42 PM 27.8819 -84.3525 89° East 437 503 30,600 -2,300 Descending Miami Center
Wed 01:19:42 PM 27.8889 -84.2169 87° East 437 503 28,400 -2,200 Descending Miami Center
Wed 01:20:42 PM 27.8894 -84.0856 90° East 432 497 26,200 -2,200 Descending Miami Center
Wed 01:21:42 PM 27.8933 -83.9639 88° East 414 476 24,000 -2,150 Descending Miami Center
Wed 01:22:42 PM 27.8972 -83.8419 88° East 396 456 21,900 -2,050 Descending Miami Center
Wed 01:23:42 PM 27.8925 -83.7244 93° East 385 443 19,900 -1,850 Descending Miami Center
Wed 01:24:42 PM 27.8875 -83.6114 93° East 369 425 18,200 -1,750 Descending Miami Center
Wed 01:25:42 PM 27.8903 -83.5036 88° East 358 412 16,400 -1,900 Descending Miami Center
Wed 01:26:42 PM 27.8931 -83.3958 88° East 348 400 14,400 -2,050 Descending Miami Center
Wed 01:27:42 PM 27.9042 -83.2886 83° East 343 395 12,300 -1,800 Descending Miami Center
Wed 01:28:42 PM 27.9108 -83.1881 86° East 338 389 10,800 -1,150 Descending Miami Center
Wed 01:29:42 PM 27.9639 -83.1181 49° Northeast 287 330 10,000 -1,000 Descending Miami Center
Wed 01:30:42 PM 28.0308 -83.0678 34° Northeast 277 319 8,800 -1,300 Descending Miami Center
Wed 01:31:42 PM 28.0956 -83.0172 35° Northeast 272 313 7,400 -1,187 Descending Miami Center
Wed 01:32:13 PM 28.1333 -82.9833 38° Northeast 281 323 7,000 -282 Descending Tampa TRACON
Wed 01:33:07 PM 28.1833 -82.9500 30° Northeast 264 304 7,000 -286 Level Tampa TRACON
Wed 01:34:19 PM 28.2167 -82.8667 66° East 264 304 6,400 -435 Descending Tampa TRACON
Wed 01:35:25 PM 28.2333 -82.7667 79° East 243 280 6,000 -190 Descending Tampa TRACON
Wed 01:36:25 PM 28.2333 -82.7000 90° East 225 259 6,000 -200 Level Tampa TRACON
Wed 01:37:25 PM 28.2167 -82.6333 106° East 230 265 5,600 -632 Descending Tampa TRACON
Wed 01:38:19 PM 28.2000 -82.5667 106° East 201 231 4,800 -1,158 Descending Tampa TRACON
Wed 01:39:19 PM 28.1500 -82.5333 150° Southeast 201 231 3,400 -1,300 Descending Tampa TRACON
Wed 01:40:19 PM 28.1000 -82.5333 180° South 197 227 2,200 -1,050 Descending Tampa TRACON
Wed 01:41:19 PM 28.0500 -82.5333 180° South 178 205 1,300 -833 Descending Tampa TRACON
Wed 01:42:07 PM 28.0167 -82.5333 180° South 140 161 700 -750 Descending Tampa TRACON
Wed 01:44:00 PM 27.9755 -82.5332 180° South  Level Estimated
Wed 01:51:00 PM 27.9755 -82.5332 19° North  Level Estimated
Wed 01:52:00 PM 27.9755 -82.5332 19° North  Level Estimated

Login

Don't have an account? Register now (free) for customized features, flight alerts, and more!